createdAt,value
2023-04-01T00:02:30.129Z,1.30
2023-04-01T00:07:32.872Z,1.27
2023-04-01T00:12:35.689Z,1.10
2023-04-01T00:17:38.703Z,1.20
2023-04-01T00:22:42.005Z,1.60
2023-04-01T00:27:44.252Z,1.77
2023-04-01T00:32:46.865Z,1.30
2023-04-01T00:37:49.642Z,1.33
2023-04-01T00:42:51.865Z,1.23
2023-04-01T00:47:54.488Z,1.17
2023-04-01T00:52:56.991Z,1.05
2023-04-01T00:58:01.160Z,1.23
2023-04-01T01:03:05.207Z,1.35
2023-04-01T01:08:16.749Z,1.25
2023-04-01T01:13:23.073Z,1.00
2023-04-01T01:18:42.331Z,1.45
2023-04-01T01:24:04.262Z,1.30
2023-04-01T01:29:15.685Z,1.20
2023-04-01T01:34:24.422Z,1.20
2023-04-01T01:39:30.286Z,1.00
2023-04-01T01:44:34.909Z,1.30
2023-04-01T01:49:39.503Z,1.30
2023-04-01T01:54:52.490Z,1.12
2023-04-01T01:59:59.807Z,1.48
2023-04-01T02:05:03.973Z,1.20
2023-04-01T02:10:07.479Z,1.20
2023-04-01T02:15:13.524Z,1.30
2023-04-01T02:20:22.497Z,1.00
2023-04-01T02:25:29.507Z,0.80
2023-04-01T02:30:34.533Z,0.80
2023-04-01T02:35:38.644Z,0.70
2023-04-01T02:40:51.889Z,0.50
2023-04-01T02:45:54.630Z,0.50
2023-04-01T02:50:57.256Z,0.80
2023-04-01T02:55:59.485Z,0.90
2023-04-01T03:01:01.834Z,0.80
2023-04-01T03:06:13.762Z,0.82
2023-04-01T03:11:16.041Z,0.80
2023-04-01T03:16:18.368Z,0.73
2023-04-01T03:21:24.824Z,0.87
2023-04-01T03:26:30.204Z,1.27
2023-04-01T03:31:32.666Z,0.70
2023-04-01T03:36:34.967Z,0.77
2023-04-01T03:41:39.370Z,0.90
2023-04-01T03:46:42.164Z,0.90
2023-04-01T03:51:44.947Z,0.80
2023-04-01T03:56:47.808Z,0.80
2023-04-01T04:01:50.067Z,0.80
2023-04-01T04:06:52.310Z,0.90
2023-04-01T04:11:54.643Z,0.80
2023-04-01T04:16:56.832Z,0.73
2023-04-01T04:22:01.725Z,0.80
2023-04-01T04:27:04.523Z,0.80
2023-04-01T04:32:06.975Z,0.90
2023-04-01T04:37:09.388Z,0.77
2023-04-01T04:42:11.567Z,0.75
2023-04-01T04:47:15.532Z,0.90
2023-04-01T04:52:17.805Z,0.95
2023-04-01T04:57:20.064Z,1.02
2023-04-01T05:02:24.874Z,1.10
2023-04-01T05:07:28.730Z,1.00
2023-04-01T05:12:30.962Z,1.10
2023-04-01T05:17:34.455Z,1.30
2023-04-01T05:22:36.654Z,1.10
2023-04-01T05:27:38.909Z,1.00
2023-04-01T05:32:41.329Z,0.90
2023-04-01T05:37:43.531Z,1.10
2023-04-01T05:42:45.897Z,1.10
2023-04-01T05:47:48.091Z,0.90
2023-04-01T05:52:50.345Z,1.10
2023-04-01T05:57:52.515Z,1.02
2023-04-01T06:02:55.606Z,0.90
2023-04-01T06:08:05.193Z,1.20
2023-04-01T06:13:26.343Z,1.20
2023-04-01T06:18:51.056Z,1.20
2023-04-01T06:23:59.053Z,0.98
2023-04-01T06:29:29.971Z,1.10
2023-04-01T06:34:50.777Z,1.12
2023-04-01T06:40:26.774Z,1.30
2023-04-01T06:45:32.467Z,1.43
2023-04-01T06:51:05.741Z,1.58
2023-04-01T06:56:20.710Z,1.20
2023-04-01T07:01:49.754Z,1.40
2023-04-01T07:06:57.071Z,1.23
2023-04-01T07:12:07.317Z,1.10
2023-04-01T07:17:25.710Z,1.35
2023-04-01T07:22:39.236Z,1.37
2023-04-01T07:27:45.668Z,1.27
2023-04-01T07:33:00.628Z,1.30
2023-04-01T07:38:43.048Z,1.00
2023-04-01T07:43:54.389Z,1.00
2023-04-01T07:49:19.374Z,1.20
2023-04-01T07:54:41.785Z,1.20
2023-04-01T08:00:15.614Z,0.93
2023-04-01T08:05:27.081Z,1.23
2023-04-01T08:10:53.698Z,1.20
2023-04-01T08:16:17.347Z,1.12
2023-04-01T08:21:31.435Z,1.30
2023-04-01T08:26:41.593Z,1.23
2023-04-01T08:31:56.305Z,1.33
2023-04-01T08:37:04.317Z,1.45
2023-04-01T08:42:37.805Z,1.15
2023-04-01T08:48:20.896Z,1.50
2023-04-01T08:54:02.461Z,1.40
2023-04-01T08:59:20.051Z,1.00
2023-04-01T09:04:34.580Z,1.40
2023-04-01T09:10:14.382Z,1.33
2023-04-01T09:15:28.878Z,1.40
2023-04-01T09:21:08.881Z,1.45
2023-04-01T09:26:38.921Z,1.80
2023-04-01T09:32:06.984Z,1.70
2023-04-01T09:37:39.987Z,2.00
2023-04-01T09:43:07.581Z,1.80
2023-04-01T09:48:18.966Z,1.65
2023-04-01T09:53:37.745Z,1.70
2023-04-01T09:58:58.461Z,1.87
2023-04-01T10:04:06.055Z,1.65
2023-04-01T10:09:39.080Z,1.87
2023-04-01T10:15:25.676Z,1.85
2023-04-01T10:20:57.576Z,1.93
2023-04-01T10:26:16.821Z,1.80
2023-04-01T10:31:35.474Z,2.10
2023-04-01T10:37:17.416Z,1.80
2023-04-01T10:42:56.940Z,1.85
2023-04-01T10:48:23.483Z,2.03
2023-04-01T10:54:08.000Z,1.85
2023-04-01T10:59:25.208Z,2.17
2023-04-01T11:04:55.393Z,2.10
2023-04-01T11:10:13.605Z,2.60
2023-04-01T11:15:31.256Z,2.33
2023-04-01T11:21:04.781Z,2.17
2023-04-01T11:26:32.255Z,1.80
2023-04-01T11:32:19.403Z,1.50
2023-04-01T11:37:56.058Z,1.50
2023-04-01T11:43:35.913Z,1.40
2023-04-01T11:49:05.802Z,1.30
2023-04-01T11:54:19.742Z,1.40
2023-04-01T11:59:41.582Z,1.67
2023-04-01T12:05:09.087Z,1.48
2023-04-01T12:10:42.994Z,1.40
2023-04-01T12:16:22.679Z,1.33
2023-04-01T12:21:43.479Z,1.15
2023-04-01T12:27:31.484Z,1.60
2023-04-01T12:32:55.233Z,1.40
2023-04-01T12:38:34.761Z,1.53
2023-04-01T12:43:58.350Z,1.50
2023-04-01T12:49:06.630Z,1.48
2023-04-01T12:54:36.729Z,1.97
2023-04-01T12:59:38.814Z,1.67
2023-04-01T13:04:46.777Z,1.77
2023-04-01T13:10:05.074Z,1.80
2023-04-01T13:15:09.967Z,1.80
2023-04-01T13:20:38.440Z,2.30
2023-04-01T13:26:07.071Z,2.37
2023-04-01T13:31:24.602Z,2.30
2023-04-01T13:36:42.872Z,2.30
2023-04-01T13:42:14.431Z,2.15
2023-04-01T13:47:48.905Z,2.70
2023-04-01T13:53:08.182Z,2.50
2023-04-01T13:58:33.484Z,2.13
2023-04-01T14:04:10.755Z,2.60
2023-04-01T14:09:37.366Z,2.45
2023-04-01T14:14:48.746Z,2.20
2023-04-01T14:20:08.676Z,1.75
2023-04-01T14:25:19.620Z,2.53
2023-04-01T14:30:24.780Z,2.30
2023-04-01T14:35:47.555Z,2.12
2023-04-01T14:41:03.922Z,2.00
2023-04-01T14:46:24.877Z,1.87
2023-04-01T14:51:34.959Z,2.27
2023-04-01T14:56:37.088Z,2.40
2023-04-01T15:02:07.855Z,2.58
2023-04-01T15:07:47.636Z,2.60
2023-04-01T15:13:11.353Z,2.28
2023-04-01T15:18:13.569Z,1.90
2023-04-01T15:23:30.508Z,1.83
2023-04-01T15:29:08.813Z,2.10
2023-04-01T15:34:47.109Z,2.10
2023-04-01T15:39:58.529Z,1.50
2023-04-01T15:45:27.380Z,1.70
2023-04-01T15:50:32.678Z,1.80
2023-04-01T15:56:00.608Z,1.45
2023-04-01T16:01:17.396Z,1.20
2023-04-01T16:06:46.813Z,1.00
2023-04-01T16:11:48.879Z,0.73
2023-04-01T16:16:56.757Z,0.82
2023-04-01T16:22:32.137Z,1.00
2023-04-01T16:27:56.230Z,1.10
2023-04-01T16:33:14.487Z,0.93
2023-04-01T16:38:37.434Z,2.10
2023-04-01T16:43:48.891Z,1.85
2023-04-01T16:49:15.012Z,1.83
2023-04-01T16:54:29.142Z,5.37
2023-04-01T16:59:58.856Z,1.77
2023-04-01T17:05:13.014Z,1.70
2023-04-01T17:10:37.292Z,1.70
2023-04-01T17:15:53.694Z,4.07
2023-04-01T17:21:22.186Z,4.05
2023-04-01T17:26:33.274Z,1.65
2023-04-01T17:32:03.821Z,2.90
2023-04-01T17:37:32.980Z,2.95
2023-04-01T17:42:55.368Z,3.37
2023-04-01T17:48:16.437Z,3.83
2023-04-01T17:53:44.610Z,1.52
2023-04-01T17:59:28.659Z,1.90
2023-04-01T18:04:53.640Z,1.52
2023-04-01T18:10:02.643Z,2.90
2023-04-01T18:15:27.808Z,2.12
2023-04-01T18:20:48.033Z,2.37
2023-04-01T18:25:56.586Z,3.43
2023-04-01T18:31:06.955Z,2.17
2023-04-01T18:36:17.360Z,2.03
2023-04-01T18:41:44.076Z,2.17
2023-04-01T18:47:03.765Z,1.70
2023-04-01T18:52:34.801Z,1.90
2023-04-01T18:57:51.476Z,2.40
2023-04-01T19:02:59.907Z,2.70
2023-04-01T19:08:31.917Z,2.65
2023-04-01T19:13:48.083Z,3.00
2023-04-01T19:19:16.244Z,2.20
2023-04-01T19:25:16.724Z,2.20
2023-04-01T19:30:57.640Z,1.90
2023-04-01T19:36:21.906Z,1.90
2023-04-01T19:41:45.651Z,2.10
2023-04-01T19:46:54.569Z,2.23
2023-04-01T19:52:29.086Z,2.40
2023-04-01T19:57:43.609Z,2.40
2023-04-01T20:03:02.403Z,2.28
2023-04-01T20:08:27.098Z,2.50
2023-04-01T20:13:38.423Z,2.30
2023-04-01T20:18:50.563Z,2.53
2023-04-01T20:24:14.510Z,2.35
2023-04-01T20:29:16.589Z,3.00
2023-04-01T20:34:34.383Z,3.20
2023-04-01T20:39:36.928Z,3.57
2023-04-01T20:44:43.100Z,3.62
2023-04-01T20:50:01.545Z,3.30
2023-04-01T20:55:22.113Z,3.28
2023-04-01T21:00:53.512Z,3.20
2023-04-01T21:06:16.986Z,3.30
2023-04-01T21:11:56.317Z,3.90
2023-04-01T21:17:01.129Z,3.67
2023-04-01T21:22:24.499Z,3.80
2023-04-01T21:27:48.962Z,3.85
2023-04-01T21:33:17.450Z,3.47
2023-04-01T21:38:28.792Z,3.80
2023-04-01T21:43:53.622Z,3.90
2023-04-01T21:49:38.530Z,3.10
2023-04-01T21:55:08.356Z,2.33
2023-04-01T22:00:18.569Z,1.70
2023-04-01T22:05:48.511Z,1.55
2023-04-01T22:10:59.916Z,1.75
2023-04-01T22:16:26.934Z,1.58
2023-04-01T22:21:39.316Z,1.80
2023-04-01T22:26:50.594Z,1.70
2023-04-01T22:32:09.345Z,1.37
2023-04-01T22:37:29.752Z,1.80
2023-04-01T22:43:09.111Z,1.90
2023-04-01T22:48:30.041Z,1.90
2023-04-01T22:54:17.276Z,2.10
2023-04-01T22:59:25.296Z,1.80
2023-04-01T23:04:34.763Z,1.90
2023-04-01T23:09:38.746Z,1.92
2023-04-01T23:14:47.613Z,1.77
2023-04-01T23:19:58.605Z,1.90
2023-04-01T23:25:21.924Z,2.03
2023-04-01T23:30:39.440Z,2.20
2023-04-01T23:35:55.042Z,1.60
2023-04-01T23:40:57.229Z,2.00
2023-04-01T23:46:05.224Z,1.50
2023-04-01T23:51:39.790Z,1.52
2023-04-01T23:56:47.441Z,1.30
